createdAt,value
2019-03-06T00:01:23.987Z,5.50
2019-03-06T00:03:57.243Z,5.33
2019-03-06T00:06:30.699Z,6.27
2019-03-06T00:09:05.311Z,5.97
2019-03-06T00:11:39.843Z,5.13
2019-03-06T00:14:12.707Z,5.33
2019-03-06T00:16:45.535Z,5.97
2019-03-06T00:19:18.586Z,6.00
2019-03-06T00:21:51.540Z,8.27
2019-03-06T00:24:24.357Z,6.67
2019-03-06T00:26:57.165Z,5.97
2019-03-06T00:29:29.983Z,6.83
2019-03-06T00:32:02.958Z,6.67
2019-03-06T00:34:35.879Z,6.60
2019-03-06T00:37:08.646Z,6.10
2019-03-06T00:40:00.365Z,7.17
2019-03-06T00:42:36.609Z,6.87
2019-03-06T00:45:10.593Z,5.80
2019-03-06T00:47:43.435Z,7.07
2019-03-06T00:50:16.179Z,7.17
2019-03-06T00:52:49.030Z,7.43
2019-03-06T00:55:22.372Z,7.03
2019-03-06T00:57:55.253Z,7.43
2019-03-06T01:00:29.318Z,7.47
2019-03-06T01:03:02.204Z,7.70
2019-03-06T01:05:34.984Z,8.20
2019-03-06T01:08:07.894Z,7.67
2019-03-06T01:10:41.144Z,7.83
2019-03-06T01:13:14.215Z,7.43
2019-03-06T01:15:47.355Z,8.00
2019-03-06T01:18:20.147Z,6.47
2019-03-06T01:20:53.047Z,6.90
2019-03-06T01:23:25.994Z,7.30
2019-03-06T01:25:58.798Z,6.60
2019-03-06T01:28:31.551Z,7.47
2019-03-06T01:31:04.305Z,6.97
2019-03-06T01:33:54.695Z,7.47
2019-03-06T01:36:49.552Z,7.23
2019-03-06T01:39:49.557Z,6.57
2019-03-06T01:42:35.350Z,7.70
2019-03-06T01:45:10.952Z,7.20
2019-03-06T01:47:43.717Z,7.80
2019-03-06T01:50:17.019Z,7.53
2019-03-06T01:52:50.144Z,6.70
2019-03-06T01:55:23.028Z,8.17
2019-03-06T01:57:55.899Z,7.03
2019-03-06T02:00:28.850Z,7.80
2019-03-06T02:03:01.962Z,8.37
2019-03-06T02:05:34.839Z,7.70
2019-03-06T02:08:08.099Z,49.00
2019-03-06T02:10:41.597Z,21.00
2019-03-06T02:13:14.528Z,10.17
2019-03-06T02:15:47.363Z,9.23
2019-03-06T02:18:20.217Z,9.63
2019-03-06T02:20:53.126Z,9.40
2019-03-06T02:23:26.053Z,9.40
2019-03-06T02:25:58.941Z,14.00
2019-03-06T02:28:31.869Z,16.57
2019-03-06T02:31:04.660Z,14.27
2019-03-06T02:33:37.540Z,10.27
2019-03-06T02:36:11.602Z,9.33
2019-03-06T02:38:44.757Z,9.50
2019-03-06T02:41:18.675Z,9.50
2019-03-06T02:43:51.554Z,11.13
2019-03-06T02:46:24.453Z,11.10
2019-03-06T02:48:57.532Z,11.53
2019-03-06T02:51:30.405Z,10.43
2019-03-06T02:54:03.477Z,10.10
2019-03-06T02:56:36.342Z,10.67
2019-03-06T02:59:27.960Z,11.03
2019-03-06T03:02:18.360Z,11.10
2019-03-06T03:05:02.203Z,9.80
2019-03-06T03:07:38.957Z,9.20
2019-03-06T03:10:14.965Z,10.47
2019-03-06T03:12:55.379Z,9.33
2019-03-06T03:15:28.788Z,9.57
2019-03-06T03:18:02.098Z,10.57
2019-03-06T03:20:36.447Z,10.57
2019-03-06T03:23:09.495Z,10.03
2019-03-06T03:25:42.829Z,9.70
2019-03-06T03:28:16.183Z,11.73
2019-03-06T03:30:50.456Z,9.53
2019-03-06T03:33:23.510Z,10.03
2019-03-06T03:35:56.396Z,11.53
2019-03-06T03:38:29.336Z,11.70
2019-03-06T03:41:03.063Z,11.17
2019-03-06T03:43:36.089Z,10.83
2019-03-06T03:46:09.071Z,11.30
2019-03-06T03:48:41.945Z,10.57
2019-03-06T03:51:14.757Z,10.47
2019-03-06T03:53:47.806Z,10.93
2019-03-06T03:56:20.842Z,10.20
2019-03-06T03:58:53.826Z,10.27
2019-03-06T04:01:26.722Z,11.27
2019-03-06T04:04:00.632Z,10.03
2019-03-06T04:06:33.575Z,10.90
2019-03-06T04:09:08.453Z,10.67
2019-03-06T04:11:43.411Z,9.97
2019-03-06T04:14:16.959Z,11.37
2019-03-06T04:16:49.968Z,10.60
2019-03-06T04:19:22.803Z,10.13
2019-03-06T04:21:55.864Z,9.90
2019-03-06T04:24:29.141Z,10.07
2019-03-06T04:27:03.937Z,9.70
2019-03-06T04:29:36.763Z,9.17
2019-03-06T04:32:09.664Z,9.97
2019-03-06T04:34:42.686Z,9.50
2019-03-06T04:37:15.659Z,10.53
2019-03-06T04:39:49.929Z,10.37
2019-03-06T04:42:22.762Z,11.07
2019-03-06T04:44:55.594Z,9.90
2019-03-06T04:47:29.493Z,10.67
2019-03-06T04:50:02.357Z,10.40
2019-03-06T04:52:36.365Z,9.43
2019-03-06T04:55:10.479Z,9.87
2019-03-06T04:57:46.051Z,10.77
2019-03-06T05:00:19.272Z,11.30
2019-03-06T05:02:52.237Z,10.30
2019-03-06T05:05:25.163Z,10.77
2019-03-06T05:07:58.103Z,10.73
2019-03-06T05:10:39.312Z,9.90
2019-03-06T05:13:14.943Z,10.77
2019-03-06T05:15:49.853Z,10.80
2019-03-06T05:18:30.168Z,11.33
2019-03-06T05:21:03.370Z,10.80
2019-03-06T05:23:38.439Z,10.00
2019-03-06T05:26:13.698Z,9.67
2019-03-06T05:28:49.743Z,10.87
2019-03-06T05:31:22.578Z,10.33
2019-03-06T05:33:55.447Z,10.30
2019-03-06T05:37:20.384Z,10.00
2019-03-06T05:39:53.303Z,10.37
2019-03-06T05:42:26.477Z,11.10
2019-03-06T05:44:59.458Z,10.10
2019-03-06T05:47:32.311Z,9.60
2019-03-06T05:50:05.330Z,11.00
2019-03-06T05:52:38.293Z,11.40
2019-03-06T05:55:13.125Z,10.93
2019-03-06T05:57:46.088Z,11.40
2019-03-06T06:00:20.625Z,10.90
2019-03-06T06:02:53.842Z,15.63
2019-03-06T06:05:28.210Z,20.40
2019-03-06T06:08:01.116Z,12.30
2019-03-06T06:10:34.669Z,11.37
2019-03-06T06:13:07.645Z,11.47
2019-03-06T06:15:40.390Z,12.27
2019-03-06T06:18:13.214Z,11.33
2019-03-06T06:20:47.606Z,11.23
2019-03-06T06:23:42.278Z,11.57
2019-03-06T06:26:15.009Z,11.93
2019-03-06T06:28:47.799Z,12.53
2019-03-06T06:31:20.886Z,12.30
2019-03-06T06:33:53.865Z,12.93
2019-03-06T06:36:26.776Z,13.20
2019-03-06T06:38:59.631Z,12.37
2019-03-06T06:41:32.517Z,12.43
2019-03-06T06:44:07.772Z,13.27
2019-03-06T06:46:40.671Z,13.23
2019-03-06T06:49:13.629Z,12.53
2019-03-06T06:52:22.628Z,13.60
2019-03-06T06:55:34.342Z,11.83
2019-03-06T06:58:51.734Z,12.87
2019-03-06T07:02:10.720Z,12.37
2019-03-06T07:05:30.397Z,13.67
2019-03-06T07:08:20.688Z,13.10
2019-03-06T07:11:14.558Z,12.93
2019-03-06T07:14:06.421Z,13.43
2019-03-06T07:16:57.512Z,14.07
2019-03-06T07:19:40.276Z,13.27
2019-03-06T07:22:18.092Z,14.00
2019-03-06T07:25:02.950Z,12.83
2019-03-06T07:27:56.368Z,13.97
2019-03-06T07:30:57.054Z,12.83
2019-03-06T07:34:01.254Z,13.10
2019-03-06T07:37:05.655Z,14.27
2019-03-06T07:39:57.277Z,14.20
2019-03-06T07:42:42.167Z,13.80
2019-03-06T07:46:05.787Z,14.60
2019-03-06T07:49:19.418Z,13.60
2019-03-06T07:52:09.691Z,14.63
2019-03-06T07:55:00.322Z,15.13
2019-03-06T07:57:41.586Z,15.10
2019-03-06T08:00:20.985Z,14.53
2019-03-06T08:03:20.344Z,14.10
2019-03-06T08:05:53.266Z,15.30
2019-03-06T08:08:26.022Z,15.03
2019-03-06T08:10:59.688Z,15.07
2019-03-06T08:13:41.296Z,16.60
2019-03-06T08:16:23.586Z,15.40
2019-03-06T08:19:18.875Z,15.40
2019-03-06T08:22:16.948Z,14.17
2019-03-06T08:24:58.893Z,15.40
2019-03-06T08:27:31.814Z,15.53
2019-03-06T08:30:07.381Z,14.80
2019-03-06T08:32:40.176Z,14.93
2019-03-06T08:35:14.666Z,16.90
2019-03-06T08:37:47.567Z,14.73
2019-03-06T08:40:20.341Z,14.17
2019-03-06T08:42:53.267Z,14.07
2019-03-06T08:45:30.102Z,16.23
2019-03-06T08:48:09.487Z,14.03
2019-03-06T08:50:49.461Z,14.80
2019-03-06T08:53:33.330Z,14.33
2019-03-06T08:56:13.603Z,14.73
2019-03-06T08:59:05.416Z,14.43
2019-03-06T09:02:00.637Z,13.47
2019-03-06T09:04:55.754Z,14.23
2019-03-06T09:07:46.397Z,12.63
2019-03-06T09:10:49.204Z,14.00
2019-03-06T09:13:42.290Z,13.40
2019-03-06T09:16:31.077Z,13.33
2019-03-06T09:19:22.463Z,12.73
2019-03-06T09:22:26.362Z,11.90
2019-03-06T09:25:16.823Z,13.30
2019-03-06T09:28:05.008Z,12.87
2019-03-06T09:31:13.651Z,12.13
2019-03-06T09:34:03.396Z,12.50
2019-03-06T09:36:45.871Z,12.63
2019-03-06T09:39:44.115Z,13.37
2019-03-06T09:42:38.544Z,12.40
2019-03-06T09:45:38.181Z,13.93
2019-03-06T09:48:32.657Z,15.07
2019-03-06T09:51:22.776Z,14.37
2019-03-06T09:54:17.383Z,16.30
2019-03-06T09:57:21.348Z,16.40
2019-03-06T10:00:03.440Z,15.60
2019-03-06T10:02:48.482Z,15.60
2019-03-06T10:05:26.765Z,17.98
2019-03-06T10:08:17.197Z,17.23
2019-03-06T10:11:04.695Z,18.32
2019-03-06T10:13:53.432Z,21.27
2019-03-06T10:16:49.739Z,21.02
2019-03-06T10:19:31.447Z,19.70
2019-03-06T10:22:04.530Z,19.75
2019-03-06T10:24:37.327Z,18.98
2019-03-06T10:27:13.563Z,17.25
2019-03-06T10:29:46.469Z,16.55
2019-03-06T10:32:19.372Z,15.23
2019-03-06T10:34:52.300Z,15.13
2019-03-06T10:37:25.278Z,15.38
2019-03-06T10:39:58.282Z,14.43
2019-03-06T10:42:31.085Z,15.38
2019-03-06T10:45:04.026Z,16.27
2019-03-06T10:47:38.232Z,16.27
2019-03-06T10:50:14.032Z,15.10
2019-03-06T10:52:46.945Z,15.55
2019-03-06T10:55:20.621Z,14.87
2019-03-06T10:57:53.504Z,13.98
2019-03-06T11:00:29.813Z,14.23
2019-03-06T11:03:03.259Z,14.23
2019-03-06T11:05:36.488Z,14.47
2019-03-06T11:08:09.842Z,13.38
2019-03-06T11:10:43.131Z,13.53
2019-03-06T11:13:16.186Z,13.30
2019-03-06T11:15:55.716Z,13.60
2019-03-06T11:18:24.770Z,13.15
2019-03-06T11:20:57.991Z,13.72
2019-03-06T11:23:31.179Z,13.43
2019-03-06T11:26:05.549Z,12.45
2019-03-06T11:28:40.178Z,10.75
2019-03-06T11:31:13.960Z,12.05
2019-03-06T11:33:47.206Z,13.50
2019-03-06T11:36:20.710Z,13.20
2019-03-06T11:38:53.993Z,11.97
2019-03-06T11:41:27.159Z,12.40
2019-03-06T11:44:00.461Z,12.47
2019-03-06T11:46:33.752Z,12.13
2019-03-06T11:49:07.735Z,12.75
2019-03-06T11:51:40.700Z,12.43
2019-03-06T11:54:13.996Z,11.40
2019-03-06T11:56:47.363Z,13.72
2019-03-06T11:59:21.180Z,12.80
2019-03-06T12:01:55.327Z,12.70
2019-03-06T12:04:28.648Z,14.65
2019-03-06T12:07:01.812Z,13.57
2019-03-06T12:09:35.070Z,13.60
2019-03-06T12:12:08.059Z,14.40
2019-03-06T12:14:41.603Z,15.33
2019-03-06T12:17:14.911Z,13.93
2019-03-06T12:19:48.354Z,12.80
2019-03-06T12:22:21.397Z,11.27
2019-03-06T12:24:54.394Z,12.87
2019-03-06T12:27:29.067Z,11.40
2019-03-06T12:30:02.223Z,11.20
2019-03-06T12:32:36.620Z,10.47
2019-03-06T12:35:09.625Z,10.23
2019-03-06T12:37:46.897Z,10.60
2019-03-06T12:40:18.032Z,10.63
2019-03-06T12:42:50.961Z,9.70
2019-03-06T12:45:24.177Z,9.40
2019-03-06T12:47:57.082Z,9.07
2019-03-06T12:50:31.406Z,9.67
2019-03-06T12:53:04.342Z,10.60
2019-03-06T12:55:37.403Z,9.50
2019-03-06T12:58:10.569Z,9.27
2019-03-06T13:00:44.681Z,9.50
2019-03-06T13:03:18.314Z,9.63
2019-03-06T13:05:51.223Z,9.77
2019-03-06T13:08:24.239Z,10.17
2019-03-06T13:10:58.474Z,9.37
2019-03-06T13:13:35.474Z,9.23
2019-03-06T13:16:06.741Z,8.90
2019-03-06T13:18:39.672Z,8.97
2019-03-06T13:21:12.815Z,9.53
2019-03-06T13:23:45.830Z,9.47
2019-03-06T13:26:20.663Z,9.53
2019-03-06T13:28:57.529Z,9.43
2019-03-06T13:31:28.414Z,8.83
2019-03-06T13:34:06.508Z,9.73
2019-03-06T13:36:39.447Z,9.33
2019-03-06T13:39:12.610Z,9.97
2019-03-06T13:41:46.086Z,10.33
2019-03-06T13:44:19.640Z,12.03
2019-03-06T13:46:53.819Z,10.80
2019-03-06T13:49:26.906Z,12.87
2019-03-06T13:52:00.101Z,10.37
2019-03-06T13:54:33.271Z,11.37
2019-03-06T13:57:06.297Z,11.43
2019-03-06T13:59:39.399Z,10.43
2019-03-06T14:02:12.438Z,10.50
2019-03-06T14:04:45.619Z,10.50
2019-03-06T14:07:18.401Z,10.20
2019-03-06T14:09:51.567Z,10.13
2019-03-06T14:12:26.052Z,10.10
2019-03-06T14:14:59.132Z,9.30
2019-03-06T14:17:34.004Z,9.27
2019-03-06T14:20:07.814Z,9.03
2019-03-06T14:22:40.884Z,9.10
2019-03-06T14:25:15.573Z,7.93
2019-03-06T14:27:48.892Z,9.00
2019-03-06T14:30:22.585Z,9.23
2019-03-06T14:32:55.554Z,9.50
2019-03-06T14:35:29.958Z,10.00
2019-03-06T14:38:09.010Z,10.17
2019-03-06T14:40:42.365Z,9.17
2019-03-06T14:43:18.585Z,11.57
2019-03-06T14:45:55.117Z,10.10
2019-03-06T14:48:28.559Z,10.80
2019-03-06T14:51:02.211Z,12.00
2019-03-06T14:53:35.346Z,11.73
2019-03-06T14:56:10.137Z,12.43
2019-03-06T14:58:43.042Z,12.07
2019-03-06T15:01:21.084Z,10.53
2019-03-06T15:03:55.151Z,11.37
2019-03-06T15:06:30.437Z,10.10
2019-03-06T15:09:15.966Z,9.80
2019-03-06T15:11:48.946Z,11.63
2019-03-06T15:14:22.925Z,11.37
2019-03-06T15:16:55.909Z,10.50
2019-03-06T15:19:29.822Z,10.60
2019-03-06T15:22:06.322Z,9.50
2019-03-06T15:24:41.953Z,10.47
2019-03-06T15:27:15.880Z,10.93
2019-03-06T15:30:00.196Z,11.97
2019-03-06T15:32:39.455Z,11.57
2019-03-06T15:35:13.777Z,11.57
2019-03-06T15:37:51.406Z,11.37
2019-03-06T15:40:28.731Z,11.77
2019-03-06T15:43:01.773Z,10.63
2019-03-06T15:45:34.865Z,11.67
2019-03-06T15:48:08.202Z,11.20
2019-03-06T15:50:41.103Z,10.57
2019-03-06T15:53:24.062Z,11.57
2019-03-06T15:55:53.916Z,11.43
2019-03-06T15:58:27.047Z,10.23
2019-03-06T16:01:02.883Z,11.10
2019-03-06T16:03:37.311Z,10.00
2019-03-06T16:06:19.905Z,10.70
2019-03-06T16:08:44.787Z,10.63
2019-03-06T16:11:19.740Z,10.50
2019-03-06T16:13:53.069Z,10.03
2019-03-06T16:16:27.377Z,10.67
2019-03-06T16:19:00.251Z,10.13
2019-03-06T16:21:35.312Z,11.30
2019-03-06T16:24:09.854Z,9.93
2019-03-06T16:26:43.972Z,10.37
2019-03-06T16:29:17.040Z,11.57
2019-03-06T16:31:51.136Z,12.03
2019-03-06T16:34:24.096Z,11.77
2019-03-06T16:37:01.668Z,12.00
2019-03-06T16:39:40.451Z,10.80
2019-03-06T16:42:13.286Z,11.97
2019-03-06T16:44:46.340Z,10.87
2019-03-06T16:47:19.956Z,11.30
2019-03-06T16:49:53.273Z,10.80
2019-03-06T16:52:26.730Z,9.97
2019-03-06T16:55:01.800Z,11.40
2019-03-06T16:57:34.972Z,10.37
2019-03-06T17:00:26.903Z,10.00
2019-03-06T17:03:06.659Z,11.00
2019-03-06T17:05:44.564Z,11.27
2019-03-06T17:08:20.955Z,13.73
2019-03-06T17:10:54.161Z,15.77
2019-03-06T17:13:27.170Z,13.97
2019-03-06T17:16:00.791Z,15.93
2019-03-06T17:18:33.856Z,16.00
2019-03-06T17:21:06.864Z,16.97
2019-03-06T17:23:39.912Z,16.53
2019-03-06T17:26:12.805Z,17.83
2019-03-06T17:28:45.782Z,17.43
2019-03-06T17:31:18.802Z,15.47
2019-03-06T17:33:51.693Z,17.27
2019-03-06T17:36:24.891Z,17.00
2019-03-06T17:39:00.773Z,15.83
2019-03-06T17:41:35.402Z,19.17
2019-03-06T17:44:08.538Z,17.33
2019-03-06T17:46:41.474Z,15.43
2019-03-06T17:49:19.170Z,16.50
2019-03-06T17:51:53.011Z,18.23
2019-03-06T17:54:28.172Z,15.83
2019-03-06T17:57:01.222Z,17.23
2019-03-06T17:59:34.927Z,17.33
2019-03-06T18:02:15.560Z,16.23
2019-03-06T18:04:48.577Z,15.83
2019-03-06T18:07:21.907Z,15.47
2019-03-06T18:09:54.876Z,16.90
2019-03-06T18:12:30.814Z,16.10
2019-03-06T18:15:03.902Z,16.60
2019-03-06T18:17:37.004Z,21.10
2019-03-06T18:20:13.763Z,23.23
2019-03-06T18:22:47.136Z,22.20
2019-03-06T18:25:20.332Z,17.97
2019-03-06T18:27:53.448Z,21.87
2019-03-06T18:30:27.190Z,17.50
2019-03-06T18:33:01.693Z,17.67
2019-03-06T18:35:34.896Z,16.37
2019-03-06T18:38:13.142Z,19.43
2019-03-06T18:40:46.564Z,22.97
2019-03-06T18:43:19.883Z,29.13
2019-03-06T18:45:53.229Z,31.23
2019-03-06T18:48:26.801Z,33.73
2019-03-06T18:50:59.824Z,36.73
2019-03-06T18:53:32.792Z,44.30
2019-03-06T18:56:06.108Z,53.70
2019-03-06T18:58:39.171Z,50.40
2019-03-06T19:01:12.252Z,34.10
2019-03-06T19:03:45.523Z,23.03
2019-03-06T19:06:20.780Z,21.73
2019-03-06T19:08:53.865Z,21.47
2019-03-06T19:11:26.915Z,22.87
2019-03-06T19:13:59.980Z,21.00
2019-03-06T19:16:33.080Z,19.10
2019-03-06T19:19:07.505Z,20.33
2019-03-06T19:21:41.077Z,23.60
2019-03-06T19:24:14.439Z,23.67
2019-03-06T19:26:47.599Z,24.23
2019-03-06T19:29:20.882Z,22.67
2019-03-06T19:31:54.009Z,22.67
2019-03-06T19:34:27.391Z,21.03
2019-03-06T19:37:00.571Z,24.87
2019-03-06T19:39:33.599Z,23.97
2019-03-06T19:42:06.729Z,27.23
2019-03-06T19:44:40.769Z,24.90
2019-03-06T19:47:16.579Z,24.00
2019-03-06T19:49:49.919Z,22.30
2019-03-06T19:52:23.111Z,22.27
2019-03-06T19:54:56.401Z,20.87
2019-03-06T19:57:36.614Z,22.23
2019-03-06T20:00:12.476Z,20.43
2019-03-06T20:02:47.097Z,21.57
2019-03-06T20:05:20.636Z,19.83
2019-03-06T20:07:54.170Z,21.40
2019-03-06T20:10:28.950Z,19.50
2019-03-06T20:13:03.314Z,20.83
2019-03-06T20:15:41.871Z,20.47
2019-03-06T20:18:18.444Z,19.27
2019-03-06T20:20:53.428Z,20.43
2019-03-06T20:23:32.422Z,17.90
2019-03-06T20:26:13.865Z,19.90
2019-03-06T20:28:41.700Z,19.20
2019-03-06T20:31:14.817Z,19.73
2019-03-06T20:33:50.581Z,18.00
2019-03-06T20:36:26.992Z,20.53
2019-03-06T20:39:00.437Z,21.20
2019-03-06T20:41:35.370Z,22.63
2019-03-06T20:44:08.873Z,24.77
2019-03-06T20:46:45.506Z,20.60
2019-03-06T20:49:20.438Z,20.07
2019-03-06T20:51:53.953Z,20.53
2019-03-06T20:54:35.165Z,19.43
2019-03-06T20:57:09.358Z,19.13
2019-03-06T20:59:45.404Z,17.67
2019-03-06T21:02:18.760Z,18.23
2019-03-06T21:04:51.910Z,18.53
2019-03-06T21:07:26.300Z,18.10
2019-03-06T21:09:59.568Z,18.10
2019-03-06T21:12:32.913Z,17.73
2019-03-06T21:15:06.821Z,16.87
2019-03-06T21:17:39.910Z,17.20
2019-03-06T21:20:15.967Z,16.53
2019-03-06T21:22:49.033Z,16.03
2019-03-06T21:25:22.052Z,15.53
2019-03-06T21:27:55.554Z,16.70
2019-03-06T21:30:31.066Z,15.53
2019-03-06T21:33:05.952Z,15.87
2019-03-06T21:35:44.224Z,16.20
2019-03-06T21:38:17.116Z,15.83
2019-03-06T21:40:50.284Z,15.27
2019-03-06T21:43:23.399Z,14.70
2019-03-06T21:45:56.434Z,14.47
2019-03-06T21:48:33.723Z,14.70
2019-03-06T21:51:07.432Z,14.33
2019-03-06T21:53:40.459Z,14.27
2019-03-06T21:56:13.582Z,15.77
2019-03-06T21:58:46.802Z,14.00
2019-03-06T22:01:20.104Z,15.33
2019-03-06T22:03:53.137Z,14.40
2019-03-06T22:06:26.020Z,14.50
2019-03-06T22:08:59.052Z,14.67
2019-03-06T22:11:32.449Z,14.67
2019-03-06T22:14:05.335Z,14.60
2019-03-06T22:16:38.286Z,14.83
2019-03-06T22:19:11.190Z,14.80
2019-03-06T22:21:44.159Z,12.97
2019-03-06T22:24:17.144Z,13.83
2019-03-06T22:26:50.188Z,13.57
2019-03-06T22:29:23.208Z,14.40
2019-03-06T22:31:56.067Z,13.93
2019-03-06T22:34:29.443Z,14.07
2019-03-06T22:37:02.583Z,15.50
2019-03-06T22:39:43.251Z,14.07
2019-03-06T22:42:34.571Z,14.67
2019-03-06T22:45:11.551Z,13.73
2019-03-06T22:47:44.564Z,13.40
2019-03-06T22:50:19.441Z,13.37
2019-03-06T22:52:55.769Z,13.63
2019-03-06T22:55:30.085Z,13.63
2019-03-06T22:58:03.218Z,14.47
2019-03-06T23:01:22.698Z,13.70
2019-03-06T23:03:58.066Z,13.73
2019-03-06T23:06:30.947Z,13.50
2019-03-06T23:09:05.772Z,14.27
2019-03-06T23:11:40.622Z,13.90
2019-03-06T23:14:17.718Z,13.37
2019-03-06T23:16:50.729Z,15.90
2019-03-06T23:19:24.329Z,14.37
2019-03-06T23:21:57.215Z,14.27
2019-03-06T23:24:30.010Z,13.73
2019-03-06T23:27:03.644Z,15.23
2019-03-06T23:29:36.831Z,14.17
2019-03-06T23:32:09.583Z,16.10
2019-03-06T23:34:42.405Z,16.63
2019-03-06T23:37:15.286Z,14.23
2019-03-06T23:39:48.430Z,15.43
2019-03-06T23:42:21.374Z,14.67
2019-03-06T23:44:56.084Z,15.47
2019-03-06T23:47:29.207Z,15.67
2019-03-06T23:50:05.529Z,15.47
2019-03-06T23:52:58.073Z,15.50
2019-03-06T23:55:31.368Z,15.73
2019-03-06T23:58:09.508Z,14.60
